Terminal Aerodrome Forecast
Issued by NWS

Home | Current Version | Previous Version | Graphics & Text | Print | Product List | Glossary On
Versions: 1 2 3 4 5 6 7 8 9 10 11 12 13 14 15 16
000
FTUS43 KICT 231720
TAFCNU
TAF
KCNU 231720Z 2318/2418 19013KT P6SM FEW250
      TEMPO 2319/2323 19013G21KT
     FM240100 17008KT P6SM FEW250
     FM241500 21009KT P6SM SCT200=

USA.gov is the U.S. government's official web portal to all federal, state and local government web resources and services.